sensor_id;sensor_type;location;lat;lon;timestamp;P1;durP1;ratioP1;P2;durP2;ratioP2
2542;SDS011;1116;51.502;7.414;2023-12-22T00:02:02;7.10;;;2.40;;
2542;SDS011;1116;51.502;7.414;2023-12-22T00:04:32;6.57;;;1.70;;
2542;SDS011;1116;51.502;7.414;2023-12-22T00:07:05;4.80;;;1.60;;
2542;SDS011;1116;51.502;7.414;2023-12-22T00:09:34;6.37;;;1.90;;
2542;SDS011;1116;51.502;7.414;2023-12-22T00:12:05;6.00;;;1.60;;
2542;SDS011;1116;51.502;7.414;2023-12-22T00:14:35;6.00;;;2.43;;
2542;SDS011;1116;51.502;7.414;2023-12-22T00:17:06;8.57;;;2.20;;
2542;SDS011;1116;51.502;7.414;2023-12-22T00:19:37;14.70;;;2.00;;
2542;SDS011;1116;51.502;7.414;2023-12-22T00:22:09;9.17;;;2.40;;
2542;SDS011;1116;51.502;7.414;2023-12-22T00:24:40;7.50;;;1.97;;
2542;SDS011;1116;51.502;7.414;2023-12-22T00:27:10;5.60;;;1.60;;
2542;SDS011;1116;51.502;7.414;2023-12-22T00:29:40;10.00;;;2.47;;
2542;SDS011;1116;51.502;7.414;2023-12-22T00:32:11;6.40;;;1.90;;
2542;SDS011;1116;51.502;7.414;2023-12-22T00:34:40;9.20;;;2.20;;
2542;SDS011;1116;51.502;7.414;2023-12-22T00:37:13;7.50;;;2.10;;
2542;SDS011;1116;51.502;7.414;2023-12-22T00:39:44;7.00;;;2.10;;
2542;SDS011;1116;51.502;7.414;2023-12-22T00:42:14;6.50;;;1.90;;
2542;SDS011;1116;51.502;7.414;2023-12-22T00:44:44;9.60;;;1.80;;
2542;SDS011;1116;51.502;7.414;2023-12-22T00:47:14;13.40;;;2.80;;
2542;SDS011;1116;51.502;7.414;2023-12-22T00:49:44;7.80;;;2.00;;
2542;SDS011;1116;51.502;7.414;2023-12-22T00:52:16;9.93;;;2.90;;
2542;SDS011;1116;51.502;7.414;2023-12-22T00:54:46;11.20;;;2.10;;
2542;SDS011;1116;51.502;7.414;2023-12-22T00:57:16;9.87;;;2.00;;
2542;SDS011;1116;51.502;7.414;2023-12-22T00:59:46;8.00;;;2.00;;
2542;SDS011;1116;51.502;7.414;2023-12-22T01:02:17;9.90;;;2.23;;
2542;SDS011;1116;51.502;7.414;2023-12-22T01:04:47;5.30;;;1.70;;
2542;SDS011;1116;51.502;7.414;2023-12-22T01:07:20;5.03;;;1.93;;
2542;SDS011;1116;51.502;7.414;2023-12-22T01:09:50;8.80;;;2.03;;
2542;SDS011;1116;51.502;7.414;2023-12-22T01:12:20;9.00;;;1.90;;
2542;SDS011;1116;51.502;7.414;2023-12-22T01:14:53;8.80;;;2.30;;
2542;SDS011;1116;51.502;7.414;2023-12-22T01:17:26;6.97;;;1.93;;
2542;SDS011;1116;51.502;7.414;2023-12-22T01:19:56;13.43;;;2.27;;
2542;SDS011;1116;51.502;7.414;2023-12-22T01:22:41;9.27;;;1.93;;
2542;SDS011;1116;51.502;7.414;2023-12-22T01:25:16;7.00;;;1.93;;
2542;SDS011;1116;51.502;7.414;2023-12-22T01:27:54;8.90;;;1.90;;
2542;SDS011;1116;51.502;7.414;2023-12-22T01:30:24;7.57;;;2.17;;
2542;SDS011;1116;51.502;7.414;2023-12-22T01:32:53;10.87;;;2.50;;
2542;SDS011;1116;51.502;7.414;2023-12-22T01:35:23;8.60;;;1.97;;
2542;SDS011;1116;51.502;7.414;2023-12-22T01:37:57;8.37;;;1.80;;
2542;SDS011;1116;51.502;7.414;2023-12-22T01:40:27;10.77;;;1.80;;
2542;SDS011;1116;51.502;7.414;2023-12-22T01:42:57;9.90;;;2.17;;
2542;SDS011;1116;51.502;7.414;2023-12-22T01:45:27;8.73;;;2.00;;
2542;SDS011;1116;51.502;7.414;2023-12-22T01:47:57;10.37;;;2.10;;
2542;SDS011;1116;51.502;7.414;2023-12-22T01:50:28;12.13;;;2.17;;
2542;SDS011;1116;51.502;7.414;2023-12-22T01:53:00;8.73;;;2.43;;
2542;SDS011;1116;51.502;7.414;2023-12-22T01:55:31;12.77;;;2.20;;
2542;SDS011;1116;51.502;7.414;2023-12-22T01:58:01;11.67;;;2.33;;
2542;SDS011;1116;51.502;7.414;2023-12-22T02:00:31;8.57;;;2.00;;
2542;SDS011;1116;51.502;7.414;2023-12-22T02:03:01;7.97;;;1.63;;
2542;SDS011;1116;51.502;7.414;2023-12-22T02:05:31;7.50;;;2.17;;
2542;SDS011;1116;51.502;7.414;2023-12-22T02:08:04;6.47;;;1.87;;
2542;SDS011;1116;51.502;7.414;2023-12-22T02:10:34;5.93;;;1.30;;
2542;SDS011;1116;51.502;7.414;2023-12-22T02:13:05;6.43;;;1.80;;
2542;SDS011;1116;51.502;7.414;2023-12-22T02:15:35;5.50;;;1.80;;
2542;SDS011;1116;51.502;7.414;2023-12-22T02:18:06;9.20;;;1.53;;
2542;SDS011;1116;51.502;7.414;2023-12-22T02:20:40;3.60;;;1.13;;
2542;SDS011;1116;51.502;7.414;2023-12-22T02:23:13;4.10;;;0.83;;
2542;SDS011;1116;51.502;7.414;2023-12-22T02:25:43;4.87;;;1.13;;
2542;SDS011;1116;51.502;7.414;2023-12-22T02:28:15;4.70;;;1.23;;
2542;SDS011;1116;51.502;7.414;2023-12-22T02:30:49;3.80;;;0.90;;
2542;SDS011;1116;51.502;7.414;2023-12-22T02:33:25;4.10;;;0.97;;
2542;SDS011;1116;51.502;7.414;2023-12-22T02:35:58;3.93;;;1.10;;
2542;SDS011;1116;51.502;7.414;2023-12-22T02:38:35;6.30;;;1.13;;
2542;SDS011;1116;51.502;7.414;2023-12-22T02:41:06;3.77;;;0.90;;
2542;SDS011;1116;51.502;7.414;2023-12-22T02:43:37;6.03;;;1.07;;
2542;SDS011;1116;51.502;7.414;2023-12-22T02:46:12;4.63;;;1.20;;
2542;SDS011;1116;51.502;7.414;2023-12-22T02:48:43;5.30;;;1.27;;
2542;SDS011;1116;51.502;7.414;2023-12-22T02:51:12;5.43;;;1.10;;
2542;SDS011;1116;51.502;7.414;2023-12-22T02:53:45;7.73;;;1.20;;
2542;SDS011;1116;51.502;7.414;2023-12-22T02:56:15;8.13;;;1.87;;
2542;SDS011;1116;51.502;7.414;2023-12-22T02:58:45;3.83;;;0.80;;
2542;SDS011;1116;51.502;7.414;2023-12-22T03:01:15;4.13;;;1.40;;
2542;SDS011;1116;51.502;7.414;2023-12-22T03:03:45;4.10;;;1.10;;
2542;SDS011;1116;51.502;7.414;2023-12-22T03:06:14;5.40;;;1.10;;
2542;SDS011;1116;51.502;7.414;2023-12-22T03:08:47;5.13;;;1.77;;
2542;SDS011;1116;51.502;7.414;2023-12-22T03:11:17;3.47;;;1.23;;
2542;SDS011;1116;51.502;7.414;2023-12-22T03:13:47;5.50;;;1.27;;
2542;SDS011;1116;51.502;7.414;2023-12-22T03:16:17;4.73;;;1.20;;
2542;SDS011;1116;51.502;7.414;2023-12-22T03:18:47;8.43;;;1.20;;
2542;SDS011;1116;51.502;7.414;2023-12-22T03:21:17;3.20;;;1.27;;
2542;SDS011;1116;51.502;7.414;2023-12-22T03:23:50;3.00;;;1.30;;
2542;SDS011;1116;51.502;7.414;2023-12-22T03:26:20;11.47;;;2.27;;
2542;SDS011;1116;51.502;7.414;2023-12-22T03:28:50;3.43;;;1.53;;
2542;SDS011;1116;51.502;7.414;2023-12-22T03:31:20;5.47;;;1.20;;
2542;SDS011;1116;51.502;7.414;2023-12-22T03:33:50;5.20;;;1.47;;
2542;SDS011;1116;51.502;7.414;2023-12-22T03:36:20;8.23;;;1.50;;
2542;SDS011;1116;51.502;7.414;2023-12-22T03:38:52;7.70;;;1.20;;
2542;SDS011;1116;51.502;7.414;2023-12-22T03:41:22;8.30;;;1.50;;
2542;SDS011;1116;51.502;7.414;2023-12-22T03:43:52;6.90;;;1.33;;
2542;SDS011;1116;51.502;7.414;2023-12-22T03:46:22;4.50;;;1.40;;
2542;SDS011;1116;51.502;7.414;2023-12-22T03:48:52;8.70;;;1.43;;
2542;SDS011;1116;51.502;7.414;2023-12-22T03:51:22;5.00;;;1.70;;
2542;SDS011;1116;51.502;7.414;2023-12-22T03:53:54;3.20;;;1.47;;
2542;SDS011;1116;51.502;7.414;2023-12-22T03:56:24;11.30;;;2.47;;
2542;SDS011;1116;51.502;7.414;2023-12-22T03:58:54;7.43;;;1.87;;
2542;SDS011;1116;51.502;7.414;2023-12-22T04:01:26;8.57;;;1.67;;
2542;SDS011;1116;51.502;7.414;2023-12-22T04:03:56;5.90;;;1.80;;
2542;SDS011;1116;51.502;7.414;2023-12-22T04:06:26;7.07;;;1.67;;
2542;SDS011;1116;51.502;7.414;2023-12-22T04:08:59;8.50;;;1.73;;
2542;SDS011;1116;51.502;7.414;2023-12-22T04:11:29;7.27;;;1.60;;
2542;SDS011;1116;51.502;7.414;2023-12-22T04:13:59;11.07;;;2.20;;
2542;SDS011;1116;51.502;7.414;2023-12-22T04:16:29;4.33;;;1.40;;
2542;SDS011;1116;51.502;7.414;2023-12-22T04:18:59;6.43;;;1.70;;
2542;SDS011;1116;51.502;7.414;2023-12-22T04:21:29;5.60;;;1.60;;
2542;SDS011;1116;51.502;7.414;2023-12-22T04:24:02;6.50;;;1.00;;
2542;SDS011;1116;51.502;7.414;2023-12-22T04:26:32;5.73;;;1.00;;
2542;SDS011;1116;51.502;7.414;2023-12-22T04:29:02;4.57;;;1.40;;
2542;SDS011;1116;51.502;7.414;2023-12-22T04:31:32;5.97;;;1.03;;
2542;SDS011;1116;51.502;7.414;2023-12-22T04:34:02;4.00;;;1.30;;
2542;SDS011;1116;51.502;7.414;2023-12-22T04:36:32;3.33;;;0.97;;
2542;SDS011;1116;51.502;7.414;2023-12-22T04:39:04;1.73;;;0.70;;
2542;SDS011;1116;51.502;7.414;2023-12-22T04:41:34;3.40;;;0.90;;
2542;SDS011;1116;51.502;7.414;2023-12-22T04:44:04;2.60;;;0.87;;
2542;SDS011;1116;51.502;7.414;2023-12-22T04:46:34;1.43;;;0.70;;
2542;SDS011;1116;51.502;7.414;2023-12-22T04:49:04;4.90;;;1.40;;
2542;SDS011;1116;51.502;7.414;2023-12-22T04:51:34;3.37;;;1.20;;
2542;SDS011;1116;51.502;7.414;2023-12-22T04:54:06;9.13;;;1.33;;
2542;SDS011;1116;51.502;7.414;2023-12-22T04:56:37;2.50;;;0.90;;
2542;SDS011;1116;51.502;7.414;2023-12-22T04:59:06;10.20;;;1.67;;
2542;SDS011;1116;51.502;7.414;2023-12-22T05:01:34;2.80;;;1.23;;
2542;SDS011;1116;51.502;7.414;2023-12-22T05:04:04;5.80;;;2.30;;
2542;SDS011;1116;51.502;7.414;2023-12-22T05:06:37;5.93;;;2.37;;
2542;SDS011;1116;51.502;7.414;2023-12-22T05:09:10;5.10;;;1.60;;
2542;SDS011;1116;51.502;7.414;2023-12-22T05:11:42;5.83;;;2.30;;
2542;SDS011;1116;51.502;7.414;2023-12-22T05:14:12;3.57;;;1.63;;
2542;SDS011;1116;51.502;7.414;2023-12-22T05:16:42;8.87;;;2.30;;
2542;SDS011;1116;51.502;7.414;2023-12-22T05:19:12;7.87;;;3.27;;
2542;SDS011;1116;51.502;7.414;2023-12-22T05:21:42;8.90;;;3.10;;
2542;SDS011;1116;51.502;7.414;2023-12-22T05:24:15;5.07;;;1.50;;
2542;SDS011;1116;51.502;7.414;2023-12-22T05:26:45;10.60;;;2.17;;
2542;SDS011;1116;51.502;7.414;2023-12-22T05:29:14;8.40;;;2.03;;
2542;SDS011;1116;51.502;7.414;2023-12-22T05:31:44;5.17;;;1.80;;
2542;SDS011;1116;51.502;7.414;2023-12-22T05:34:14;4.90;;;1.70;;
2542;SDS011;1116;51.502;7.414;2023-12-22T05:36:44;7.97;;;2.10;;
2542;SDS011;1116;51.502;7.414;2023-12-22T05:39:17;6.80;;;1.67;;
2542;SDS011;1116;51.502;7.414;2023-12-22T05:41:48;9.80;;;1.77;;
2542;SDS011;1116;51.502;7.414;2023-12-22T05:44:18;4.30;;;1.00;;
2542;SDS011;1116;51.502;7.414;2023-12-22T05:46:49;7.70;;;1.90;;
2542;SDS011;1116;51.502;7.414;2023-12-22T05:49:19;5.47;;;1.43;;
2542;SDS011;1116;51.502;7.414;2023-12-22T05:51:50;7.77;;;1.97;;
2542;SDS011;1116;51.502;7.414;2023-12-22T05:54:22;8.00;;;1.67;;
2542;SDS011;1116;51.502;7.414;2023-12-22T05:56:52;5.30;;;1.47;;
2542;SDS011;1116;51.502;7.414;2023-12-22T05:59:24;5.33;;;1.60;;
2542;SDS011;1116;51.502;7.414;2023-12-22T06:01:54;5.77;;;2.10;;
2542;SDS011;1116;51.502;7.414;2023-12-22T06:04:25;10.67;;;2.07;;
2542;SDS011;1116;51.502;7.414;2023-12-22T06:06:55;5.93;;;1.50;;
2542;SDS011;1116;51.502;7.414;2023-12-22T06:09:27;5.00;;;1.83;;
2542;SDS011;1116;51.502;7.414;2023-12-22T06:11:57;9.93;;;2.60;;
2542;SDS011;1116;51.502;7.414;2023-12-22T06:14:27;7.70;;;1.70;;
2542;SDS011;1116;51.502;7.414;2023-12-22T06:16:58;7.10;;;1.80;;
2542;SDS011;1116;51.502;7.414;2023-12-22T06:19:28;9.63;;;2.13;;
2542;SDS011;1116;51.502;7.414;2023-12-22T06:21:58;3.60;;;1.70;;
2542;SDS011;1116;51.502;7.414;2023-12-22T06:24:34;5.50;;;1.90;;
2542;SDS011;1116;51.502;7.414;2023-12-22T06:27:04;8.87;;;2.23;;
2542;SDS011;1116;51.502;7.414;2023-12-22T06:29:35;6.93;;;1.60;;
2542;SDS011;1116;51.502;7.414;2023-12-22T06:32:05;9.70;;;2.30;;
2542;SDS011;1116;51.502;7.414;2023-12-22T06:34:35;10.87;;;2.67;;
2542;SDS011;1116;51.502;7.414;2023-12-22T06:37:05;9.37;;;2.37;;
2542;SDS011;1116;51.502;7.414;2023-12-22T06:39:40;8.50;;;2.40;;
2542;SDS011;1116;51.502;7.414;2023-12-22T06:42:09;8.43;;;2.37;;
2542;SDS011;1116;51.502;7.414;2023-12-22T06:44:41;5.87;;;1.90;;
2542;SDS011;1116;51.502;7.414;2023-12-22T06:47:11;6.13;;;1.90;;
2542;SDS011;1116;51.502;7.414;2023-12-22T06:49:42;7.77;;;2.33;;
2542;SDS011;1116;51.502;7.414;2023-12-22T06:52:12;12.77;;;2.43;;
2542;SDS011;1116;51.502;7.414;2023-12-22T06:54:45;10.37;;;2.40;;
2542;SDS011;1116;51.502;7.414;2023-12-22T06:57:15;11.37;;;2.77;;
2542;SDS011;1116;51.502;7.414;2023-12-22T06:59:47;9.03;;;1.80;;
2542;SDS011;1116;51.502;7.414;2023-12-22T07:02:20;9.13;;;2.33;;
2542;SDS011;1116;51.502;7.414;2023-12-22T07:08:16;8.07;;;2.03;;
2542;SDS011;1116;51.502;7.414;2023-12-22T07:10:48;10.63;;;2.70;;
2542;SDS011;1116;51.502;7.414;2023-12-22T07:13:18;8.13;;;2.30;;
2542;SDS011;1116;51.502;7.414;2023-12-22T07:15:48;10.17;;;2.07;;
2542;SDS011;1116;51.502;7.414;2023-12-22T07:18:30;9.73;;;2.37;;
2542;SDS011;1116;51.502;7.414;2023-12-22T07:21:00;9.83;;;2.43;;
2542;SDS011;1116;51.502;7.414;2023-12-22T07:23:31;9.13;;;2.30;;
2542;SDS011;1116;51.502;7.414;2023-12-22T07:26:03;9.93;;;2.80;;
2542;SDS011;1116;51.502;7.414;2023-12-22T07:28:33;7.37;;;2.07;;
2542;SDS011;1116;51.502;7.414;2023-12-22T07:31:03;10.70;;;2.27;;
2542;SDS011;1116;51.502;7.414;2023-12-22T07:33:34;11.33;;;1.93;;
2542;SDS011;1116;51.502;7.414;2023-12-22T07:36:04;4.77;;;2.17;;
2542;SDS011;1116;51.502;7.414;2023-12-22T07:38:35;11.20;;;2.97;;
2542;SDS011;1116;51.502;7.414;2023-12-22T07:41:08;9.20;;;2.33;;
2542;SDS011;1116;51.502;7.414;2023-12-22T07:43:39;10.93;;;3.10;;
2542;SDS011;1116;51.502;7.414;2023-12-22T07:46:16;10.30;;;3.43;;
2542;SDS011;1116;51.502;7.414;2023-12-22T07:48:46;12.93;;;3.37;;
2542;SDS011;1116;51.502;7.414;2023-12-22T07:51:18;11.57;;;2.97;;
2542;SDS011;1116;51.502;7.414;2023-12-22T07:53:48;9.50;;;2.50;;
2542;SDS011;1116;51.502;7.414;2023-12-22T07:56:20;7.70;;;2.80;;
2542;SDS011;1116;51.502;7.414;2023-12-22T07:58:50;11.10;;;3.00;;
2542;SDS011;1116;51.502;7.414;2023-12-22T08:01:40;13.00;;;2.80;;
2542;SDS011;1116;51.502;7.414;2023-12-22T08:04:10;16.20;;;3.00;;
2542;SDS011;1116;51.502;7.414;2023-12-22T08:06:41;11.27;;;2.53;;
2542;SDS011;1116;51.502;7.414;2023-12-22T08:09:10;9.40;;;2.63;;
2542;SDS011;1116;51.502;7.414;2023-12-22T08:11:43;9.07;;;2.10;;
2542;SDS011;1116;51.502;7.414;2023-12-22T08:14:14;9.30;;;2.60;;
2542;SDS011;1116;51.502;7.414;2023-12-22T08:16:44;9.77;;;2.57;;
2542;SDS011;1116;51.502;7.414;2023-12-22T08:19:14;7.63;;;2.20;;
2542;SDS011;1116;51.502;7.414;2023-12-22T08:21:45;11.47;;;2.53;;
2542;SDS011;1116;51.502;7.414;2023-12-22T08:24:17;12.67;;;3.20;;
2542;SDS011;1116;51.502;7.414;2023-12-22T08:26:51;12.70;;;3.60;;
2542;SDS011;1116;51.502;7.414;2023-12-22T08:29:21;11.37;;;3.43;;
2542;SDS011;1116;51.502;7.414;2023-12-22T08:31:51;12.43;;;3.30;;
2542;SDS011;1116;51.502;7.414;2023-12-22T08:34:21;9.07;;;3.47;;
2542;SDS011;1116;51.502;7.414;2023-12-22T08:36:51;14.53;;;6.20;;
2542;SDS011;1116;51.502;7.414;2023-12-22T08:39:21;13.30;;;4.30;;
2542;SDS011;1116;51.502;7.414;2023-12-22T08:41:55;11.17;;;3.83;;
2542;SDS011;1116;51.502;7.414;2023-12-22T08:44:25;12.00;;;3.73;;
2542;SDS011;1116;51.502;7.414;2023-12-22T08:46:55;20.27;;;5.23;;
2542;SDS011;1116;51.502;7.414;2023-12-22T08:49:25;20.23;;;4.50;;
2542;SDS011;1116;51.502;7.414;2023-12-22T08:51:55;22.10;;;3.40;;
2542;SDS011;1116;51.502;7.414;2023-12-22T08:54:25;14.80;;;4.50;;
2542;SDS011;1116;51.502;7.414;2023-12-22T08:56:58;21.53;;;4.60;;
2542;SDS011;1116;51.502;7.414;2023-12-22T08:59:30;13.77;;;3.80;;
2542;SDS011;1116;51.502;7.414;2023-12-22T09:02:00;16.07;;;4.50;;
2542;SDS011;1116;51.502;7.414;2023-12-22T09:04:30;14.73;;;3.80;;
2542;SDS011;1116;51.502;7.414;2023-12-22T09:07:00;22.57;;;5.30;;
2542;SDS011;1116;51.502;7.414;2023-12-22T09:09:30;20.00;;;4.83;;
2542;SDS011;1116;51.502;7.414;2023-12-22T09:12:03;19.10;;;4.10;;
2542;SDS011;1116;51.502;7.414;2023-12-22T09:14:33;25.03;;;6.43;;
2542;SDS011;1116;51.502;7.414;2023-12-22T09:17:03;22.33;;;6.10;;
2542;SDS011;1116;51.502;7.414;2023-12-22T09:19:33;13.40;;;4.83;;
2542;SDS011;1116;51.502;7.414;2023-12-22T09:22:05;16.93;;;5.20;;
2542;SDS011;1116;51.502;7.414;2023-12-22T09:24:35;18.80;;;4.60;;
2542;SDS011;1116;51.502;7.414;2023-12-22T09:27:07;20.63;;;4.97;;
2542;SDS011;1116;51.502;7.414;2023-12-22T09:29:37;16.70;;;4.77;;
2542;SDS011;1116;51.502;7.414;2023-12-22T09:32:08;26.20;;;5.87;;
2542;SDS011;1116;51.502;7.414;2023-12-22T09:34:38;17.73;;;5.20;;
2542;SDS011;1116;51.502;7.414;2023-12-22T09:37:08;20.07;;;4.97;;
2542;SDS011;1116;51.502;7.414;2023-12-22T09:39:38;20.00;;;5.53;;
2542;SDS011;1116;51.502;7.414;2023-12-22T09:42:11;15.30;;;4.33;;
2542;SDS011;1116;51.502;7.414;2023-12-22T09:44:42;14.70;;;4.00;;
2542;SDS011;1116;51.502;7.414;2023-12-22T09:47:12;16.00;;;3.80;;
2542;SDS011;1116;51.502;7.414;2023-12-22T09:49:43;12.50;;;3.07;;
2542;SDS011;1116;51.502;7.414;2023-12-22T09:52:15;12.27;;;3.77;;
2542;SDS011;1116;51.502;7.414;2023-12-22T09:54:45;13.37;;;4.40;;
2542;SDS011;1116;51.502;7.414;2023-12-22T09:57:20;9.23;;;3.80;;
2542;SDS011;1116;51.502;7.414;2023-12-22T09:59:54;14.30;;;4.20;;
2542;SDS011;1116;51.502;7.414;2023-12-22T10:02:26;12.73;;;3.97;;
2542;SDS011;1116;51.502;7.414;2023-12-22T10:04:58;15.07;;;3.47;;
2542;SDS011;1116;51.502;7.414;2023-12-22T10:07:29;13.73;;;3.60;;
2542;SDS011;1116;51.502;7.414;2023-12-22T10:10:00;14.53;;;3.00;;
2542;SDS011;1116;51.502;7.414;2023-12-22T10:12:33;12.33;;;2.73;;
2542;SDS011;1116;51.502;7.414;2023-12-22T10:15:06;8.33;;;2.67;;
2542;SDS011;1116;51.502;7.414;2023-12-22T10:17:42;10.40;;;2.37;;
2542;SDS011;1116;51.502;7.414;2023-12-22T10:20:13;14.93;;;2.47;;
2542;SDS011;1116;51.502;7.414;2023-12-22T10:22:46;9.70;;;2.67;;
2542;SDS011;1116;51.502;7.414;2023-12-22T10:25:19;9.30;;;2.67;;
2542;SDS011;1116;51.502;7.414;2023-12-22T10:27:53;7.50;;;2.80;;
2542;SDS011;1116;51.502;7.414;2023-12-22T10:30:23;12.43;;;3.33;;
2542;SDS011;1116;51.502;7.414;2023-12-22T10:32:54;11.30;;;3.40;;
2542;SDS011;1116;51.502;7.414;2023-12-22T10:35:24;11.00;;;2.87;;
2542;SDS011;1116;51.502;7.414;2023-12-22T10:37:54;6.50;;;2.90;;
2542;SDS011;1116;51.502;7.414;2023-12-22T10:40:29;8.43;;;3.27;;
2542;SDS011;1116;51.502;7.414;2023-12-22T10:43:02;10.87;;;4.03;;
2542;SDS011;1116;51.502;7.414;2023-12-22T10:45:34;10.83;;;4.00;;
2542;SDS011;1116;51.502;7.414;2023-12-22T10:48:06;9.27;;;4.03;;
2542;SDS011;1116;51.502;7.414;2023-12-22T10:50:36;13.47;;;4.27;;
2542;SDS011;1116;51.502;7.414;2023-12-22T10:53:10;11.77;;;4.20;;
2542;SDS011;1116;51.502;7.414;2023-12-22T10:55:45;10.10;;;3.90;;
2542;SDS011;1116;51.502;7.414;2023-12-22T10:58:19;15.63;;;4.07;;
2542;SDS011;1116;51.502;7.414;2023-12-22T11:00:50;11.77;;;3.80;;
2542;SDS011;1116;51.502;7.414;2023-12-22T11:03:22;9.67;;;3.83;;
2542;SDS011;1116;51.502;7.414;2023-12-22T11:05:54;13.47;;;4.00;;
2542;SDS011;1116;51.502;7.414;2023-12-22T11:08:27;10.13;;;3.43;;
2542;SDS011;1116;51.502;7.414;2023-12-22T11:10:58;15.67;;;4.47;;
2542;SDS011;1116;51.502;7.414;2023-12-22T11:13:37;8.97;;;3.60;;
2542;SDS011;1116;51.502;7.414;2023-12-22T11:16:09;18.47;;;4.90;;
2542;SDS011;1116;51.502;7.414;2023-12-22T11:18:39;9.23;;;3.57;;
2542;SDS011;1116;51.502;7.414;2023-12-22T11:21:11;11.57;;;3.37;;
2542;SDS011;1116;51.502;7.414;2023-12-22T11:23:42;6.73;;;3.03;;
2542;SDS011;1116;51.502;7.414;2023-12-22T11:26:14;7.77;;;3.00;;
2542;SDS011;1116;51.502;7.414;2023-12-22T11:28:49;8.70;;;2.60;;
2542;SDS011;1116;51.502;7.414;2023-12-22T11:31:20;6.30;;;2.63;;
2542;SDS011;1116;51.502;7.414;2023-12-22T11:33:52;8.63;;;3.13;;
2542;SDS011;1116;51.502;7.414;2023-12-22T11:36:37;9.80;;;2.27;;
2542;SDS011;1116;51.502;7.414;2023-12-22T11:39:07;5.60;;;1.70;;
2542;SDS011;1116;51.502;7.414;2023-12-22T11:41:37;2.03;;;1.40;;
2542;SDS011;1116;51.502;7.414;2023-12-22T11:44:12;6.20;;;1.97;;
2542;SDS011;1116;51.502;7.414;2023-12-22T11:46:42;5.13;;;1.63;;
2542;SDS011;1116;51.502;7.414;2023-12-22T11:49:14;4.33;;;1.30;;
2542;SDS011;1116;51.502;7.414;2023-12-22T11:51:44;3.43;;;1.17;;
2542;SDS011;1116;51.502;7.414;2023-12-22T11:57:29;2.67;;;1.00;;
2542;SDS011;1116;51.502;7.414;2023-12-22T12:00:00;2.00;;;0.93;;
2542;SDS011;1116;51.502;7.414;2023-12-22T12:02:33;4.90;;;1.10;;
2542;SDS011;1116;51.502;7.414;2023-12-22T12:05:05;2.40;;;1.10;;
2542;SDS011;1116;51.502;7.414;2023-12-22T12:07:43;3.57;;;0.97;;
2542;SDS011;1116;51.502;7.414;2023-12-22T12:13:23;3.90;;;1.60;;
2542;SDS011;1116;51.502;7.414;2023-12-22T12:15:57;2.30;;;1.67;;
2542;SDS011;1116;51.502;7.414;2023-12-22T12:18:29;4.40;;;1.90;;
2542;SDS011;1116;51.502;7.414;2023-12-22T12:21:00;2.80;;;1.73;;
2542;SDS011;1116;51.502;7.414;2023-12-22T12:23:30;3.77;;;2.07;;
2542;SDS011;1116;51.502;7.414;2023-12-22T12:26:00;4.90;;;2.20;;
2542;SDS011;1116;51.502;7.414;2023-12-22T12:28:31;5.03;;;2.10;;
2542;SDS011;1116;51.502;7.414;2023-12-22T12:31:05;2.60;;;1.83;;
2542;SDS011;1116;51.502;7.414;2023-12-22T12:33:35;2.57;;;1.60;;
2542;SDS011;1116;51.502;7.414;2023-12-22T12:36:06;2.03;;;1.43;;
2542;SDS011;1116;51.502;7.414;2023-12-22T12:38:40;5.40;;;1.50;;
2542;SDS011;1116;51.502;7.414;2023-12-22T12:41:15;4.17;;;1.40;;
2542;SDS011;1116;51.502;7.414;2023-12-22T12:43:50;2.80;;;1.87;;
2542;SDS011;1116;51.502;7.414;2023-12-22T12:46:24;1.77;;;1.00;;
2542;SDS011;1116;51.502;7.414;2023-12-22T12:49:02;2.77;;;1.33;;
2542;SDS011;1116;51.502;7.414;2023-12-22T12:51:36;3.77;;;2.43;;
2542;SDS011;1116;51.502;7.414;2023-12-22T12:54:07;2.73;;;1.30;;
2542;SDS011;1116;51.502;7.414;2023-12-22T12:56:38;4.80;;;1.63;;
2542;SDS011;1116;51.502;7.414;2023-12-22T12:59:09;3.60;;;1.80;;
2542;SDS011;1116;51.502;7.414;2023-12-22T13:01:42;3.30;;;1.30;;
2542;SDS011;1116;51.502;7.414;2023-12-22T13:04:13;2.17;;;1.50;;
2542;SDS011;1116;51.502;7.414;2023-12-22T13:06:45;2.30;;;1.63;;
2542;SDS011;1116;51.502;7.414;2023-12-22T13:09:18;4.30;;;2.10;;
2542;SDS011;1116;51.502;7.414;2023-12-22T13:11:48;6.13;;;2.33;;
2542;SDS011;1116;51.502;7.414;2023-12-22T13:14:22;3.27;;;2.57;;
2542;SDS011;1116;51.502;7.414;2023-12-22T13:16:56;6.27;;;2.47;;
2542;SDS011;1116;51.502;7.414;2023-12-22T13:19:27;5.47;;;2.10;;
2542;SDS011;1116;51.502;7.414;2023-12-22T13:21:57;3.30;;;1.43;;
2542;SDS011;1116;51.502;7.414;2023-12-22T13:24:27;3.80;;;1.30;;
2542;SDS011;1116;51.502;7.414;2023-12-22T13:27:00;3.40;;;1.30;;
2542;SDS011;1116;51.502;7.414;2023-12-22T13:29:42;1.53;;;1.20;;
2542;SDS011;1116;51.502;7.414;2023-12-22T13:32:19;3.47;;;1.40;;
2542;SDS011;1116;51.502;7.414;2023-12-22T13:34:51;1.93;;;1.10;;
2542;SDS011;1116;51.502;7.414;2023-12-22T13:37:24;4.27;;;1.20;;
2542;SDS011;1116;51.502;7.414;2023-12-22T13:39:57;3.27;;;1.33;;
2542;SDS011;1116;51.502;7.414;2023-12-22T13:42:28;2.40;;;1.60;;
2542;SDS011;1116;51.502;7.414;2023-12-22T13:44:57;6.63;;;1.50;;
2542;SDS011;1116;51.502;7.414;2023-12-22T13:47:30;2.50;;;1.30;;
2542;SDS011;1116;51.502;7.414;2023-12-22T13:50:00;2.70;;;1.47;;
2542;SDS011;1116;51.502;7.414;2023-12-22T13:52:31;6.40;;;1.87;;
2542;SDS011;1116;51.502;7.414;2023-12-22T13:55:02;2.87;;;1.40;;
2542;SDS011;1116;51.502;7.414;2023-12-22T13:57:38;4.03;;;1.63;;
2542;SDS011;1116;51.502;7.414;2023-12-22T14:02:57;6.67;;;2.00;;
2542;SDS011;1116;51.502;7.414;2023-12-22T14:05:27;3.93;;;1.60;;
2542;SDS011;1116;51.502;7.414;2023-12-22T14:08:01;4.97;;;1.90;;
2542;SDS011;1116;51.502;7.414;2023-12-22T14:10:31;4.47;;;1.73;;
2542;SDS011;1116;51.502;7.414;2023-12-22T14:13:01;7.83;;;2.10;;
2542;SDS011;1116;51.502;7.414;2023-12-22T14:15:30;4.97;;;1.80;;
2542;SDS011;1116;51.502;7.414;2023-12-22T14:18:13;6.60;;;1.70;;
2542;SDS011;1116;51.502;7.414;2023-12-22T14:20:46;3.90;;;1.97;;
2542;SDS011;1116;51.502;7.414;2023-12-22T14:23:16;5.00;;;2.27;;
2542;SDS011;1116;51.502;7.414;2023-12-22T14:25:46;3.70;;;1.60;;
2542;SDS011;1116;51.502;7.414;2023-12-22T14:28:16;5.00;;;1.47;;
2542;SDS011;1116;51.502;7.414;2023-12-22T14:30:46;4.27;;;2.00;;
2542;SDS011;1116;51.502;7.414;2023-12-22T14:33:19;4.80;;;1.90;;
2542;SDS011;1116;51.502;7.414;2023-12-22T14:35:49;4.77;;;1.67;;
2542;SDS011;1116;51.502;7.414;2023-12-22T14:38:19;5.07;;;1.73;;
2542;SDS011;1116;51.502;7.414;2023-12-22T14:40:49;4.23;;;1.70;;
2542;SDS011;1116;51.502;7.414;2023-12-22T14:43:19;4.50;;;1.63;;
2542;SDS011;1116;51.502;7.414;2023-12-22T14:45:49;4.57;;;1.60;;
2542;SDS011;1116;51.502;7.414;2023-12-22T14:48:22;4.33;;;1.70;;
2542;SDS011;1116;51.502;7.414;2023-12-22T14:50:52;3.43;;;1.70;;
2542;SDS011;1116;51.502;7.414;2023-12-22T14:53:22;4.80;;;1.70;;
2542;SDS011;1116;51.502;7.414;2023-12-22T14:55:52;3.83;;;1.90;;
2542;SDS011;1116;51.502;7.414;2023-12-22T14:58:24;9.10;;;2.13;;
2542;SDS011;1116;51.502;7.414;2023-12-22T15:00:55;4.90;;;2.70;;
2542;SDS011;1116;51.502;7.414;2023-12-22T15:03:28;6.73;;;2.10;;
2542;SDS011;1116;51.502;7.414;2023-12-22T15:05:58;6.07;;;2.13;;
2542;SDS011;1116;51.502;7.414;2023-12-22T15:08:31;10.30;;;2.73;;
2542;SDS011;1116;51.502;7.414;2023-12-22T15:11:04;5.27;;;1.93;;
2542;SDS011;1116;51.502;7.414;2023-12-22T15:13:35;6.40;;;1.80;;
2542;SDS011;1116;51.502;7.414;2023-12-22T15:16:07;4.23;;;2.30;;
2542;SDS011;1116;51.502;7.414;2023-12-22T15:18:40;4.77;;;1.40;;
2542;SDS011;1116;51.502;7.414;2023-12-22T15:21:18;4.90;;;1.63;;
2542;SDS011;1116;51.502;7.414;2023-12-22T15:23:48;5.40;;;2.17;;
2542;SDS011;1116;51.502;7.414;2023-12-22T15:26:21;3.43;;;1.77;;
2542;SDS011;1116;51.502;7.414;2023-12-22T15:28:52;3.27;;;1.57;;
2542;SDS011;1116;51.502;7.414;2023-12-22T15:31:22;5.07;;;1.80;;
2542;SDS011;1116;51.502;7.414;2023-12-22T15:33:55;6.43;;;1.80;;
2542;SDS011;1116;51.502;7.414;2023-12-22T15:36:27;4.77;;;1.67;;
2542;SDS011;1116;51.502;7.414;2023-12-22T15:38:57;3.23;;;1.77;;
2542;SDS011;1116;51.502;7.414;2023-12-22T15:41:28;4.80;;;1.63;;
2542;SDS011;1116;51.502;7.414;2023-12-22T15:43:59;3.27;;;1.13;;
2542;SDS011;1116;51.502;7.414;2023-12-22T15:46:29;5.13;;;1.50;;
2542;SDS011;1116;51.502;7.414;2023-12-22T15:49:01;3.30;;;1.30;;
2542;SDS011;1116;51.502;7.414;2023-12-22T15:51:31;3.53;;;1.50;;